sensor_id;sensor_type;location;lat;lon;timestamp;temperature;humidity
59075;DHT22;44860;53.020;6.738;2023-04-24T00:00:08;11.40;99.90
59075;DHT22;44860;53.020;6.738;2023-04-24T00:02:35;11.40;99.90
59075;DHT22;44860;53.020;6.738;2023-04-24T00:05:04;11.40;99.90
59075;DHT22;44860;53.020;6.738;2023-04-24T00:07:30;11.40;99.90
59075;DHT22;44860;53.020;6.738;2023-04-24T00:09:55;11.30;99.90
59075;DHT22;44860;53.020;6.738;2023-04-24T00:12:21;11.30;99.90
59075;DHT22;44860;53.020;6.738;2023-04-24T00:14:47;11.20;99.90
59075;DHT22;44860;53.020;6.738;2023-04-24T00:17:13;11.20;99.90
59075;DHT22;44860;53.020;6.738;2023-04-24T00:19:38;11.10;99.90
59075;DHT22;44860;53.020;6.738;2023-04-24T00:22:04;11.10;99.90
59075;DHT22;44860;53.020;6.738;2023-04-24T00:24:30;11.10;99.90
59075;DHT22;44860;53.020;6.738;2023-04-24T00:26:56;11.00;99.90
59075;DHT22;44860;53.020;6.738;2023-04-24T00:29:22;11.00;99.90
59075;DHT22;44860;53.020;6.738;2023-04-24T00:31:48;11.00;99.90
59075;DHT22;44860;53.020;6.738;2023-04-24T00:34:14;10.90;99.90
59075;DHT22;44860;53.020;6.738;2023-04-24T00:36:39;10.90;99.90
59075;DHT22;44860;53.020;6.738;2023-04-24T00:39:05;10.90;99.90
59075;DHT22;44860;53.020;6.738;2023-04-24T00:41:34;10.90;99.90
59075;DHT22;44860;53.020;6.738;2023-04-24T00:44:00;10.90;99.90
59075;DHT22;44860;53.020;6.738;2023-04-24T00:46:26;10.90;99.90
59075;DHT22;44860;53.020;6.738;2023-04-24T00:48:52;10.90;99.90
59075;DHT22;44860;53.020;6.738;2023-04-24T00:51:18;10.90;99.90
59075;DHT22;44860;53.020;6.738;2023-04-24T00:53:43;10.90;99.90
59075;DHT22;44860;53.020;6.738;2023-04-24T00:56:09;10.90;99.90
59075;DHT22;44860;53.020;6.738;2023-04-24T00:58:35;10.90;99.90
59075;DHT22;44860;53.020;6.738;2023-04-24T01:01:02;10.80;99.90
59075;DHT22;44860;53.020;6.738;2023-04-24T01:03:30;10.80;99.90
59075;DHT22;44860;53.020;6.738;2023-04-24T01:05:57;10.80;99.90
59075;DHT22;44860;53.020;6.738;2023-04-24T01:08:24;10.80;99.90
59075;DHT22;44860;53.020;6.738;2023-04-24T01:10:52;10.80;99.90
59075;DHT22;44860;53.020;6.738;2023-04-24T01:13:18;10.80;99.90
59075;DHT22;44860;53.020;6.738;2023-04-24T01:15:45;10.80;99.90
59075;DHT22;44860;53.020;6.738;2023-04-24T01:18:11;10.80;99.90
59075;DHT22;44860;53.020;6.738;2023-04-24T01:20:39;10.80;99.90
59075;DHT22;44860;53.020;6.738;2023-04-24T01:23:06;10.80;99.90
59075;DHT22;44860;53.020;6.738;2023-04-24T01:25:31;10.70;99.90
59075;DHT22;44860;53.020;6.738;2023-04-24T01:27:58;10.80;99.90
59075;DHT22;44860;53.020;6.738;2023-04-24T01:30:24;10.70;99.90
59075;DHT22;44860;53.020;6.738;2023-04-24T01:32:50;10.70;99.90
59075;DHT22;44860;53.020;6.738;2023-04-24T01:35:17;10.70;99.90
59075;DHT22;44860;53.020;6.738;2023-04-24T01:37:42;10.70;99.90
59075;DHT22;44860;53.020;6.738;2023-04-24T01:40:09;10.80;99.90
59075;DHT22;44860;53.020;6.738;2023-04-24T01:42:35;10.70;99.90
59075;DHT22;44860;53.020;6.738;2023-04-24T01:45:02;10.70;99.90
59075;DHT22;44860;53.020;6.738;2023-04-24T01:47:30;10.70;99.90
59075;DHT22;44860;53.020;6.738;2023-04-24T01:49:56;10.70;99.90
59075;DHT22;44860;53.020;6.738;2023-04-24T01:52:21;10.70;99.90
59075;DHT22;44860;53.020;6.738;2023-04-24T01:54:50;10.70;99.90
59075;DHT22;44860;53.020;6.738;2023-04-24T01:57:17;10.70;99.90
59075;DHT22;44860;53.020;6.738;2023-04-24T01:59:43;10.70;99.90
59075;DHT22;44860;53.020;6.738;2023-04-24T02:02:08;10.70;99.90
59075;DHT22;44860;53.020;6.738;2023-04-24T02:04:34;10.70;99.90
59075;DHT22;44860;53.020;6.738;2023-04-24T02:07:00;10.70;99.90
59075;DHT22;44860;53.020;6.738;2023-04-24T02:09:25;10.70;99.90
59075;DHT22;44860;53.020;6.738;2023-04-24T02:11:51;10.70;99.90
59075;DHT22;44860;53.020;6.738;2023-04-24T02:14:17;10.70;99.90
59075;DHT22;44860;53.020;6.738;2023-04-24T02:16:42;10.70;99.90
59075;DHT22;44860;53.020;6.738;2023-04-24T02:19:09;10.70;99.90
59075;DHT22;44860;53.020;6.738;2023-04-24T02:21:35;10.70;99.90
59075;DHT22;44860;53.020;6.738;2023-04-24T02:24:01;10.70;99.90
59075;DHT22;44860;53.020;6.738;2023-04-24T02:26:26;10.70;99.90
59075;DHT22;44860;53.020;6.738;2023-04-24T02:28:52;10.70;99.90
59075;DHT22;44860;53.020;6.738;2023-04-24T02:31:18;10.70;99.90
59075;DHT22;44860;53.020;6.738;2023-04-24T02:33:44;10.70;99.90
59075;DHT22;44860;53.020;6.738;2023-04-24T02:36:09;10.60;99.90
59075;DHT22;44860;53.020;6.738;2023-04-24T02:38:35;10.60;99.90
59075;DHT22;44860;53.020;6.738;2023-04-24T02:41:01;10.60;99.90
59075;DHT22;44860;53.020;6.738;2023-04-24T02:43:27;10.60;99.90
59075;DHT22;44860;53.020;6.738;2023-04-24T02:45:53;10.50;99.90
59075;DHT22;44860;53.020;6.738;2023-04-24T02:48:19;10.50;99.90
59075;DHT22;44860;53.020;6.738;2023-04-24T02:50:46;10.50;99.90
59075;DHT22;44860;53.020;6.738;2023-04-24T02:53:12;10.40;99.90
59075;DHT22;44860;53.020;6.738;2023-04-24T02:55:37;10.40;99.90
59075;DHT22;44860;53.020;6.738;2023-04-24T02:58:03;10.40;99.90
59075;DHT22;44860;53.020;6.738;2023-04-24T03:00:29;10.40;99.90
59075;DHT22;44860;53.020;6.738;2023-04-24T03:02:55;10.40;99.90
59075;DHT22;44860;53.020;6.738;2023-04-24T03:05:21;10.30;99.90
59075;DHT22;44860;53.020;6.738;2023-04-24T03:07:47;10.40;99.90
59075;DHT22;44860;53.020;6.738;2023-04-24T03:10:12;10.30;99.90
59075;DHT22;44860;53.020;6.738;2023-04-24T03:12:38;10.30;99.90
59075;DHT22;44860;53.020;6.738;2023-04-24T03:15:04;10.30;99.90
59075;DHT22;44860;53.020;6.738;2023-04-24T03:17:30;10.30;99.90
59075;DHT22;44860;53.020;6.738;2023-04-24T03:19:55;10.30;99.90
59075;DHT22;44860;53.020;6.738;2023-04-24T03:22:21;10.30;99.90
59075;DHT22;44860;53.020;6.738;2023-04-24T03:24:47;10.30;99.90
59075;DHT22;44860;53.020;6.738;2023-04-24T03:27:12;10.30;99.90
59075;DHT22;44860;53.020;6.738;2023-04-24T03:29:38;10.20;99.90
59075;DHT22;44860;53.020;6.738;2023-04-24T03:32:03;10.20;99.90
59075;DHT22;44860;53.020;6.738;2023-04-24T03:34:29;10.20;99.90
59075;DHT22;44860;53.020;6.738;2023-04-24T03:36:55;10.20;99.90
59075;DHT22;44860;53.020;6.738;2023-04-24T03:39:20;10.20;99.90
59075;DHT22;44860;53.020;6.738;2023-04-24T03:41:46;10.20;99.90
59075;DHT22;44860;53.020;6.738;2023-04-24T03:44:12;10.20;99.90
59075;DHT22;44860;53.020;6.738;2023-04-24T03:46:37;10.10;99.90
59075;DHT22;44860;53.020;6.738;2023-04-24T03:49:03;10.10;99.90
59075;DHT22;44860;53.020;6.738;2023-04-24T03:51:28;10.10;99.90
59075;DHT22;44860;53.020;6.738;2023-04-24T03:53:55;10.20;99.90
59075;DHT22;44860;53.020;6.738;2023-04-24T03:56:21;10.10;99.90
59075;DHT22;44860;53.020;6.738;2023-04-24T03:58:46;10.10;99.90
59075;DHT22;44860;53.020;6.738;2023-04-24T04:01:12;10.10;99.90
59075;DHT22;44860;53.020;6.738;2023-04-24T04:03:38;10.10;99.90
59075;DHT22;44860;53.020;6.738;2023-04-24T04:06:04;10.00;99.90
59075;DHT22;44860;53.020;6.738;2023-04-24T04:08:30;10.00;99.90
59075;DHT22;44860;53.020;6.738;2023-04-24T04:10:55;10.00;99.90
59075;DHT22;44860;53.020;6.738;2023-04-24T04:13:21;10.00;99.90
59075;DHT22;44860;53.020;6.738;2023-04-24T04:15:47;10.10;99.90
59075;DHT22;44860;53.020;6.738;2023-04-24T04:18:12;10.00;99.90
59075;DHT22;44860;53.020;6.738;2023-04-24T04:20:38;9.90;99.90
59075;DHT22;44860;53.020;6.738;2023-04-24T04:23:04;10.00;99.90
59075;DHT22;44860;53.020;6.738;2023-04-24T04:25:29;10.00;99.90
59075;DHT22;44860;53.020;6.738;2023-04-24T04:27:55;10.00;99.90
59075;DHT22;44860;53.020;6.738;2023-04-24T04:30:21;9.90;99.90
59075;DHT22;44860;53.020;6.738;2023-04-24T04:32:47;9.90;99.90
59075;DHT22;44860;53.020;6.738;2023-04-24T04:35:12;9.90;99.90
59075;DHT22;44860;53.020;6.738;2023-04-24T04:37:38;10.00;99.90
59075;DHT22;44860;53.020;6.738;2023-04-24T04:40:05;9.90;99.90
59075;DHT22;44860;53.020;6.738;2023-04-24T04:42:33;9.90;99.90
59075;DHT22;44860;53.020;6.738;2023-04-24T04:45:01;9.90;99.90
59075;DHT22;44860;53.020;6.738;2023-04-24T04:47:27;9.90;99.90
59075;DHT22;44860;53.020;6.738;2023-04-24T04:49:54;9.90;99.90
59075;DHT22;44860;53.020;6.738;2023-04-24T04:52:20;10.00;99.90
59075;DHT22;44860;53.020;6.738;2023-04-24T04:54:45;10.00;99.90
59075;DHT22;44860;53.020;6.738;2023-04-24T04:57:11;9.90;99.90
59075;DHT22;44860;53.020;6.738;2023-04-24T04:59:37;9.90;99.90
59075;DHT22;44860;53.020;6.738;2023-04-24T05:02:03;9.90;99.90
59075;DHT22;44860;53.020;6.738;2023-04-24T05:04:29;9.90;99.90
59075;DHT22;44860;53.020;6.738;2023-04-24T05:06:55;9.90;99.90
59075;DHT22;44860;53.020;6.738;2023-04-24T05:09:21;9.90;99.90
59075;DHT22;44860;53.020;6.738;2023-04-24T05:11:47;9.90;99.90
59075;DHT22;44860;53.020;6.738;2023-04-24T05:14:13;9.90;99.90
59075;DHT22;44860;53.020;6.738;2023-04-24T05:16:39;9.90;99.90
59075;DHT22;44860;53.020;6.738;2023-04-24T05:19:05;9.90;99.90
59075;DHT22;44860;53.020;6.738;2023-04-24T05:21:31;9.90;99.90
59075;DHT22;44860;53.020;6.738;2023-04-24T05:23:57;9.90;99.90
59075;DHT22;44860;53.020;6.738;2023-04-24T05:26:22;9.90;99.90
59075;DHT22;44860;53.020;6.738;2023-04-24T05:28:48;9.90;99.90
59075;DHT22;44860;53.020;6.738;2023-04-24T05:31:15;9.90;99.90
59075;DHT22;44860;53.020;6.738;2023-04-24T05:33:43;9.90;99.90
59075;DHT22;44860;53.020;6.738;2023-04-24T05:36:08;9.90;99.90
59075;DHT22;44860;53.020;6.738;2023-04-24T05:38:34;9.90;99.90
59075;DHT22;44860;53.020;6.738;2023-04-24T05:41:00;9.90;99.90
59075;DHT22;44860;53.020;6.738;2023-04-24T05:43:25;9.80;99.90
59075;DHT22;44860;53.020;6.738;2023-04-24T05:45:51;9.80;99.90
59075;DHT22;44860;53.020;6.738;2023-04-24T05:48:16;9.80;99.90
59075;DHT22;44860;53.020;6.738;2023-04-24T05:50:42;9.80;99.90
59075;DHT22;44860;53.020;6.738;2023-04-24T05:53:08;9.80;99.90
59075;DHT22;44860;53.020;6.738;2023-04-24T05:55:36;9.80;99.90
59075;DHT22;44860;53.020;6.738;2023-04-24T05:58:02;9.80;99.90
59075;DHT22;44860;53.020;6.738;2023-04-24T06:00:27;9.80;99.90
59075;DHT22;44860;53.020;6.738;2023-04-24T06:02:54;9.80;99.90
59075;DHT22;44860;53.020;6.738;2023-04-24T06:05:20;9.80;99.90
59075;DHT22;44860;53.020;6.738;2023-04-24T06:07:46;9.80;99.90
59075;DHT22;44860;53.020;6.738;2023-04-24T06:10:11;9.80;99.90
59075;DHT22;44860;53.020;6.738;2023-04-24T06:12:37;9.80;99.90
59075;DHT22;44860;53.020;6.738;2023-04-24T06:15:03;9.80;99.90
59075;DHT22;44860;53.020;6.738;2023-04-24T06:17:30;9.80;99.90
59075;DHT22;44860;53.020;6.738;2023-04-24T06:19:56;9.80;99.90
59075;DHT22;44860;53.020;6.738;2023-04-24T06:22:21;9.80;99.90
59075;DHT22;44860;53.020;6.738;2023-04-24T06:24:47;9.90;99.90
59075;DHT22;44860;53.020;6.738;2023-04-24T06:27:14;9.90;99.90
59075;DHT22;44860;53.020;6.738;2023-04-24T06:29:39;9.90;99.90
59075;DHT22;44860;53.020;6.738;2023-04-24T06:32:05;9.90;99.90
59075;DHT22;44860;53.020;6.738;2023-04-24T06:34:31;9.90;99.90
59075;DHT22;44860;53.020;6.738;2023-04-24T06:36:58;9.90;99.90
59075;DHT22;44860;53.020;6.738;2023-04-24T06:39:23;10.00;99.90
59075;DHT22;44860;53.020;6.738;2023-04-24T06:41:49;10.00;99.90
59075;DHT22;44860;53.020;6.738;2023-04-24T06:44:15;10.00;99.90
59075;DHT22;44860;53.020;6.738;2023-04-24T06:46:42;10.00;99.90
59075;DHT22;44860;53.020;6.738;2023-04-24T06:49:07;10.00;99.90
59075;DHT22;44860;53.020;6.738;2023-04-24T06:51:33;10.00;99.90
59075;DHT22;44860;53.020;6.738;2023-04-24T06:53:59;10.10;99.90
59075;DHT22;44860;53.020;6.738;2023-04-24T06:56:25;10.10;99.90
59075;DHT22;44860;53.020;6.738;2023-04-24T06:58:51;10.10;99.90
59075;DHT22;44860;53.020;6.738;2023-04-24T07:01:17;10.10;99.90
59075;DHT22;44860;53.020;6.738;2023-04-24T07:03:43;10.20;99.90
59075;DHT22;44860;53.020;6.738;2023-04-24T07:06:09;10.20;99.90
59075;DHT22;44860;53.020;6.738;2023-04-24T07:08:38;10.20;99.90
59075;DHT22;44860;53.020;6.738;2023-04-24T07:11:04;10.20;99.90
59075;DHT22;44860;53.020;6.738;2023-04-24T07:13:29;10.30;99.90
59075;DHT22;44860;53.020;6.738;2023-04-24T07:15:55;10.30;99.90
59075;DHT22;44860;53.020;6.738;2023-04-24T07:18:22;10.30;99.90
59075;DHT22;44860;53.020;6.738;2023-04-24T07:20:47;10.30;99.90
59075;DHT22;44860;53.020;6.738;2023-04-24T07:23:15;10.40;99.90
59075;DHT22;44860;53.020;6.738;2023-04-24T07:25:41;10.40;99.90
59075;DHT22;44860;53.020;6.738;2023-04-24T07:28:07;10.40;99.90
59075;DHT22;44860;53.020;6.738;2023-04-24T07:30:33;10.40;99.90
59075;DHT22;44860;53.020;6.738;2023-04-24T07:32:59;10.40;99.90
59075;DHT22;44860;53.020;6.738;2023-04-24T07:35:26;10.40;99.90
59075;DHT22;44860;53.020;6.738;2023-04-24T07:37:55;10.40;99.90
59075;DHT22;44860;53.020;6.738;2023-04-24T07:40:21;10.40;99.90
59075;DHT22;44860;53.020;6.738;2023-04-24T07:42:47;10.40;99.90
59075;DHT22;44860;53.020;6.738;2023-04-24T07:45:14;10.40;99.90
59075;DHT22;44860;53.020;6.738;2023-04-24T07:47:42;10.40;99.90
59075;DHT22;44860;53.020;6.738;2023-04-24T07:50:09;10.40;99.90
59075;DHT22;44860;53.020;6.738;2023-04-24T07:52:35;10.40;99.90
59075;DHT22;44860;53.020;6.738;2023-04-24T07:55:01;10.30;99.90
59075;DHT22;44860;53.020;6.738;2023-04-24T07:57:27;10.30;99.90
59075;DHT22;44860;53.020;6.738;2023-04-24T07:59:53;10.30;99.90
59075;DHT22;44860;53.020;6.738;2023-04-24T08:02:19;10.30;99.90
59075;DHT22;44860;53.020;6.738;2023-04-24T08:04:45;10.30;99.90
59075;DHT22;44860;53.020;6.738;2023-04-24T08:07:11;10.30;99.90
59075;DHT22;44860;53.020;6.738;2023-04-24T08:09:38;10.30;99.90
59075;DHT22;44860;53.020;6.738;2023-04-24T08:12:04;10.30;99.90
59075;DHT22;44860;53.020;6.738;2023-04-24T08:14:29;10.30;99.90
59075;DHT22;44860;53.020;6.738;2023-04-24T08:16:55;10.30;99.90
59075;DHT22;44860;53.020;6.738;2023-04-24T08:19:25;10.30;99.90
59075;DHT22;44860;53.020;6.738;2023-04-24T08:21:51;10.20;99.90
59075;DHT22;44860;53.020;6.738;2023-04-24T08:24:17;10.20;99.90
59075;DHT22;44860;53.020;6.738;2023-04-24T08:26:42;10.20;99.90
59075;DHT22;44860;53.020;6.738;2023-04-24T08:29:08;10.20;99.90
59075;DHT22;44860;53.020;6.738;2023-04-24T08:31:34;10.20;99.90
59075;DHT22;44860;53.020;6.738;2023-04-24T08:34:00;10.10;99.90
59075;DHT22;44860;53.020;6.738;2023-04-24T08:36:26;10.10;99.90
59075;DHT22;44860;53.020;6.738;2023-04-24T08:38:52;10.10;99.90
59075;DHT22;44860;53.020;6.738;2023-04-24T08:41:18;10.10;99.90
59075;DHT22;44860;53.020;6.738;2023-04-24T08:43:47;10.10;99.90
59075;DHT22;44860;53.020;6.738;2023-04-24T08:46:15;10.10;99.90
59075;DHT22;44860;53.020;6.738;2023-04-24T08:48:42;10.00;99.90
59075;DHT22;44860;53.020;6.738;2023-04-24T08:51:08;10.00;99.90
59075;DHT22;44860;53.020;6.738;2023-04-24T08:53:35;10.00;99.90
59075;DHT22;44860;53.020;6.738;2023-04-24T08:56:01;9.90;99.90
59075;DHT22;44860;53.020;6.738;2023-04-24T08:58:28;9.90;99.90
59075;DHT22;44860;53.020;6.738;2023-04-24T09:00:57;9.90;99.90
59075;DHT22;44860;53.020;6.738;2023-04-24T09:03:24;9.80;99.90
59075;DHT22;44860;53.020;6.738;2023-04-24T09:05:50;9.80;99.90
59075;DHT22;44860;53.020;6.738;2023-04-24T09:08:20;9.80;99.90
59075;DHT22;44860;53.020;6.738;2023-04-24T09:10:49;9.80;99.90
59075;DHT22;44860;53.020;6.738;2023-04-24T09:13:14;9.70;99.90
59075;DHT22;44860;53.020;6.738;2023-04-24T09:15:41;9.70;99.90
59075;DHT22;44860;53.020;6.738;2023-04-24T09:18:07;9.70;99.90
59075;DHT22;44860;53.020;6.738;2023-04-24T09:20:33;9.70;99.90
59075;DHT22;44860;53.020;6.738;2023-04-24T09:23:00;9.60;99.90
59075;DHT22;44860;53.020;6.738;2023-04-24T09:25:34;9.60;99.90
59075;DHT22;44860;53.020;6.738;2023-04-24T09:28:04;9.50;99.90
59075;DHT22;44860;53.020;6.738;2023-04-24T09:30:32;9.50;99.90
59075;DHT22;44860;53.020;6.738;2023-04-24T09:33:14;9.50;99.90
59075;DHT22;44860;53.020;6.738;2023-04-24T09:35:50;9.50;99.90
59075;DHT22;44860;53.020;6.738;2023-04-24T09:38:16;9.40;99.90
59075;DHT22;44860;53.020;6.738;2023-04-24T09:40:42;9.40;99.90
59075;DHT22;44860;53.020;6.738;2023-04-24T09:43:11;9.40;99.90
59075;DHT22;44860;53.020;6.738;2023-04-24T09:45:38;9.40;99.90
59075;DHT22;44860;53.020;6.738;2023-04-24T09:48:04;9.40;99.90
59075;DHT22;44860;53.020;6.738;2023-04-24T09:50:32;9.40;99.90
59075;DHT22;44860;53.020;6.738;2023-04-24T09:53:05;9.40;99.90
59075;DHT22;44860;53.020;6.738;2023-04-24T09:55:39;9.30;99.90
59075;DHT22;44860;53.020;6.738;2023-04-24T09:58:08;9.40;99.90
59075;DHT22;44860;53.020;6.738;2023-04-24T10:00:34;9.40;99.90
59075;DHT22;44860;53.020;6.738;2023-04-24T10:03:02;9.40;99.90
59075;DHT22;44860;53.020;6.738;2023-04-24T10:05:30;9.40;99.90
59075;DHT22;44860;53.020;6.738;2023-04-24T10:07:59;9.40;99.90
59075;DHT22;44860;53.020;6.738;2023-04-24T10:10:25;9.40;99.90
59075;DHT22;44860;53.020;6.738;2023-04-24T10:12:51;9.40;99.90
59075;DHT22;44860;53.020;6.738;2023-04-24T10:15:18;9.40;99.90
59075;DHT22;44860;53.020;6.738;2023-04-24T10:17:50;9.50;99.90
59075;DHT22;44860;53.020;6.738;2023-04-24T10:20:26;9.40;99.90
59075;DHT22;44860;53.020;6.738;2023-04-24T10:22:54;9.40;99.90
59075;DHT22;44860;53.020;6.738;2023-04-24T10:25:22;9.40;99.90
59075;DHT22;44860;53.020;6.738;2023-04-24T10:27:50;9.40;99.90
59075;DHT22;44860;53.020;6.738;2023-04-24T10:30:17;9.40;99.90
59075;DHT22;44860;53.020;6.738;2023-04-24T10:32:44;9.40;99.90
59075;DHT22;44860;53.020;6.738;2023-04-24T10:35:13;9.40;99.90
59075;DHT22;44860;53.020;6.738;2023-04-24T10:37:48;9.40;99.90
59075;DHT22;44860;53.020;6.738;2023-04-24T10:40:19;9.40;99.90
59075;DHT22;44860;53.020;6.738;2023-04-24T10:42:52;9.50;99.90
59075;DHT22;44860;53.020;6.738;2023-04-24T10:45:21;9.50;99.90
59075;DHT22;44860;53.020;6.738;2023-04-24T10:48:02;9.50;99.90
59075;DHT22;44860;53.020;6.738;2023-04-24T10:50:29;9.50;99.90
59075;DHT22;44860;53.020;6.738;2023-04-24T10:53:06;9.50;99.90
59075;DHT22;44860;53.020;6.738;2023-04-24T10:55:48;9.50;99.90
59075;DHT22;44860;53.020;6.738;2023-04-24T10:58:15;9.50;99.90
59075;DHT22;44860;53.020;6.738;2023-04-24T11:00:43;9.50;99.90
59075;DHT22;44860;53.020;6.738;2023-04-24T11:06:08;9.50;99.90
59075;DHT22;44860;53.020;6.738;2023-04-24T11:08:44;9.50;99.90
59075;DHT22;44860;53.020;6.738;2023-04-24T11:11:12;9.50;99.90
59075;DHT22;44860;53.020;6.738;2023-04-24T11:16:31;9.60;99.90
59075;DHT22;44860;53.020;6.738;2023-04-24T11:27:05;9.60;99.90
59075;DHT22;44860;53.020;6.738;2023-04-24T11:34:54;9.70;99.90
59075;DHT22;44860;53.020;6.738;2023-04-24T11:37:22;9.80;99.90
59075;DHT22;44860;53.020;6.738;2023-04-24T11:39:53;9.80;99.90
59075;DHT22;44860;53.020;6.738;2023-04-24T11:42:21;9.80;99.90
59075;DHT22;44860;53.020;6.738;2023-04-24T11:44:47;9.70;99.90
59075;DHT22;44860;53.020;6.738;2023-04-24T11:47:14;9.80;99.90
59075;DHT22;44860;53.020;6.738;2023-04-24T11:49:40;9.80;99.90
59075;DHT22;44860;53.020;6.738;2023-04-24T11:52:06;9.70;99.90
59075;DHT22;44860;53.020;6.738;2023-04-24T11:54:32;9.80;99.90
59075;DHT22;44860;53.020;6.738;2023-04-24T11:56:58;9.80;99.90
59075;DHT22;44860;53.020;6.738;2023-04-24T11:59:23;9.90;99.90
59075;DHT22;44860;53.020;6.738;2023-04-24T12:01:49;9.90;99.90
59075;DHT22;44860;53.020;6.738;2023-04-24T12:04:17;9.90;99.90
59075;DHT22;44860;53.020;6.738;2023-04-24T12:07:04;10.00;99.90
59075;DHT22;44860;53.020;6.738;2023-04-24T12:09:56;10.00;99.90
59075;DHT22;44860;53.020;6.738;2023-04-24T12:12:24;10.00;99.90
59075;DHT22;44860;53.020;6.738;2023-04-24T12:14:56;10.00;99.90
59075;DHT22;44860;53.020;6.738;2023-04-24T12:17:32;9.90;99.90
59075;DHT22;44860;53.020;6.738;2023-04-24T12:20:04;9.90;99.90
59075;DHT22;44860;53.020;6.738;2023-04-24T12:22:50;9.90;99.90
59075;DHT22;44860;53.020;6.738;2023-04-24T12:25:19;9.80;99.90
59075;DHT22;44860;53.020;6.738;2023-04-24T12:27:46;9.70;99.90
59075;DHT22;44860;53.020;6.738;2023-04-24T12:30:16;9.70;99.90
59075;DHT22;44860;53.020;6.738;2023-04-24T12:32:47;9.60;99.90
59075;DHT22;44860;53.020;6.738;2023-04-24T12:35:13;9.50;99.90
59075;DHT22;44860;53.020;6.738;2023-04-24T12:37:42;9.50;99.90
59075;DHT22;44860;53.020;6.738;2023-04-24T12:40:09;9.50;99.90
59075;DHT22;44860;53.020;6.738;2023-04-24T12:42:42;9.50;99.90
59075;DHT22;44860;53.020;6.738;2023-04-24T12:45:08;9.50;99.90
59075;DHT22;44860;53.020;6.738;2023-04-24T12:47:34;9.50;99.90
59075;DHT22;44860;53.020;6.738;2023-04-24T12:50:01;9.50;99.90
59075;DHT22;44860;53.020;6.738;2023-04-24T12:52:28;9.50;99.90
59075;DHT22;44860;53.020;6.738;2023-04-24T12:54:56;9.50;99.90
59075;DHT22;44860;53.020;6.738;2023-04-24T12:57:23;9.50;99.90
59075;DHT22;44860;53.020;6.738;2023-04-24T12:59:48;9.60;99.90
59075;DHT22;44860;53.020;6.738;2023-04-24T13:02:14;9.60;99.90
59075;DHT22;44860;53.020;6.738;2023-04-24T13:04:44;9.60;99.90
59075;DHT22;44860;53.020;6.738;2023-04-24T13:07:10;9.60;99.90
59075;DHT22;44860;53.020;6.738;2023-04-24T13:09:36;9.70;99.90
59075;DHT22;44860;53.020;6.738;2023-04-24T13:12:02;9.70;99.90
59075;DHT22;44860;53.020;6.738;2023-04-24T13:14:28;9.70;99.90
59075;DHT22;44860;53.020;6.738;2023-04-24T13:16:53;9.70;99.90
59075;DHT22;44860;53.020;6.738;2023-04-24T13:19:19;9.60;99.90
59075;DHT22;44860;53.020;6.738;2023-04-24T13:21:45;9.60;99.90
59075;DHT22;44860;53.020;6.738;2023-04-24T13:24:11;9.70;99.90
59075;DHT22;44860;53.020;6.738;2023-04-24T13:26:36;9.70;99.90
59075;DHT22;44860;53.020;6.738;2023-04-24T13:29:02;9.70;99.90
59075;DHT22;44860;53.020;6.738;2023-04-24T13:31:29;9.80;99.90
59075;DHT22;44860;53.020;6.738;2023-04-24T13:33:54;9.80;99.90
59075;DHT22;44860;53.020;6.738;2023-04-24T13:36:20;9.80;99.90
59075;DHT22;44860;53.020;6.738;2023-04-24T13:38:46;9.80;99.90
59075;DHT22;44860;53.020;6.738;2023-04-24T13:41:11;9.80;99.90
59075;DHT22;44860;53.020;6.738;2023-04-24T13:43:37;9.80;99.90
59075;DHT22;44860;53.020;6.738;2023-04-24T13:46:03;9.80;99.90
59075;DHT22;44860;53.020;6.738;2023-04-24T13:48:29;9.80;99.90
59075;DHT22;44860;53.020;6.738;2023-04-24T13:50:55;9.80;99.90
59075;DHT22;44860;53.020;6.738;2023-04-24T13:53:21;9.80;99.90
59075;DHT22;44860;53.020;6.738;2023-04-24T13:55:47;9.80;99.90
59075;DHT22;44860;53.020;6.738;2023-04-24T13:58:13;9.80;99.90
59075;DHT22;44860;53.020;6.738;2023-04-24T14:00:39;9.80;99.90
59075;DHT22;44860;53.020;6.738;2023-04-24T14:03:04;9.90;99.90
59075;DHT22;44860;53.020;6.738;2023-04-24T14:05:30;9.90;99.90
59075;DHT22;44860;53.020;6.738;2023-04-24T14:07:56;9.90;99.90
59075;DHT22;44860;53.020;6.738;2023-04-24T14:10:21;9.90;99.90
59075;DHT22;44860;53.020;6.738;2023-04-24T14:12:47;10.00;99.90
59075;DHT22;44860;53.020;6.738;2023-04-24T14:15:13;10.00;99.90
59075;DHT22;44860;53.020;6.738;2023-04-24T14:17:39;10.00;99.90
59075;DHT22;44860;53.020;6.738;2023-04-24T14:20:06;9.90;99.90
59075;DHT22;44860;53.020;6.738;2023-04-24T14:22:32;9.90;99.90
59075;DHT22;44860;53.020;6.738;2023-04-24T14:24:58;9.90;99.90
59075;DHT22;44860;53.020;6.738;2023-04-24T14:27:24;9.90;99.90
59075;DHT22;44860;53.020;6.738;2023-04-24T14:29:50;9.90;99.90
59075;DHT22;44860;53.020;6.738;2023-04-24T14:32:16;9.90;99.90
59075;DHT22;44860;53.020;6.738;2023-04-24T14:34:41;9.90;99.90
59075;DHT22;44860;53.020;6.738;2023-04-24T14:37:07;9.80;99.90
59075;DHT22;44860;53.020;6.738;2023-04-24T14:39:33;9.80;99.90
59075;DHT22;44860;53.020;6.738;2023-04-24T14:41:59;9.80;99.90
59075;DHT22;44860;53.020;6.738;2023-04-24T14:44:25;9.80;99.90
59075;DHT22;44860;53.020;6.738;2023-04-24T14:46:51;9.80;99.90
59075;DHT22;44860;53.020;6.738;2023-04-24T14:49:17;9.80;99.90
59075;DHT22;44860;53.020;6.738;2023-04-24T14:51:42;9.80;99.90
59075;DHT22;44860;53.020;6.738;2023-04-24T14:54:08;9.80;99.90
59075;DHT22;44860;53.020;6.738;2023-04-24T14:56:34;9.80;99.90
59075;DHT22;44860;53.020;6.738;2023-04-24T14:59:00;9.80;99.90
59075;DHT22;44860;53.020;6.738;2023-04-24T15:01:26;9.70;99.90
59075;DHT22;44860;53.020;6.738;2023-04-24T15:03:52;9.70;99.90
59075;DHT22;44860;53.020;6.738;2023-04-24T15:06:17;9.60;99.90
59075;DHT22;44860;53.020;6.738;2023-04-24T15:08:43;9.60;99.90
59075;DHT22;44860;53.020;6.738;2023-04-24T15:11:10;9.60;99.90
59075;DHT22;44860;53.020;6.738;2023-04-24T15:13:36;9.60;99.90
59075;DHT22;44860;53.020;6.738;2023-04-24T15:16:01;9.60;99.90
59075;DHT22;44860;53.020;6.738;2023-04-24T15:18:27;9.60;99.90
59075;DHT22;44860;53.020;6.738;2023-04-24T15:20:55;9.50;99.90
59075;DHT22;44860;53.020;6.738;2023-04-24T15:23:20;9.50;99.90
59075;DHT22;44860;53.020;6.738;2023-04-24T15:25:46;9.50;99.90
59075;DHT22;44860;53.020;6.738;2023-04-24T15:28:12;9.50;99.90
59075;DHT22;44860;53.020;6.738;2023-04-24T15:30:38;9.50;99.90
59075;DHT22;44860;53.020;6.738;2023-04-24T15:33:03;9.50;99.90
59075;DHT22;44860;53.020;6.738;2023-04-24T15:35:29;9.50;99.90
59075;DHT22;44860;53.020;6.738;2023-04-24T15:37:55;9.50;99.90
59075;DHT22;44860;53.020;6.738;2023-04-24T15:40:21;9.50;99.90
59075;DHT22;44860;53.020;6.738;2023-04-24T15:42:47;9.50;99.90
59075;DHT22;44860;53.020;6.738;2023-04-24T15:45:13;9.50;99.90
59075;DHT22;44860;53.020;6.738;2023-04-24T15:47:38;9.50;99.90
59075;DHT22;44860;53.020;6.738;2023-04-24T15:50:05;9.50;99.90
59075;DHT22;44860;53.020;6.738;2023-04-24T15:52:30;9.50;99.90
59075;DHT22;44860;53.020;6.738;2023-04-24T15:54:56;9.50;99.90